Time;durP1;ratioP1;P1;durP2;ratioP2;P2;SDS_P1;SDS_P2;PMS_P1;PMS_P2;Temp;Humidity;BMP_temperature;BMP_pressure;BME280_temperature;BME280_humidity;BME280_pressure;Samples;Min_cycle;Max_cycle;Signal;HPM_P1;HPM_P2
2021/03/06 00:00:24;;;;;;;9.30;6.38;;;-0.30;76.10;;;-1.68;62.48;96084.97;5071458;28;20207;-83
2021/03/06 00:02:52;;;;;;;9.65;6.03;;;-0.30;76.10;;;-1.71;62.58;96086.88;5055118;28;20198;-82
2021/03/06 00:05:21;;;;;;;10.10;6.07;;;-0.40;76.00;;;-1.73;62.68;96091.28;5054950;28;20195;-83
2021/03/06 00:07:48;;;;;;;9.02;5.63;;;-0.40;76.10;;;-1.76;62.68;96094.84;5071906;28;20210;-84
2021/03/06 00:10:17;;;;;;;11.40;6.47;;;-0.40;76.10;;;-1.76;62.49;96089.69;5037716;28;20270;-83
2021/03/06 00:12:47;;;;;;;10.55;6.40;;;-0.40;76.10;;;-1.78;62.52;96097.50;5038263;28;20207;-84
2021/03/06 00:15:19;;;;;;;9.65;5.85;;;-0.40;76.10;;;-1.78;62.62;96099.28;5055560;28;20195;-83
2021/03/06 00:17:45;;;;;;;8.90;5.68;;;-0.50;76.10;;;-1.81;62.64;96094.28;5082824;28;20179;-82
2021/03/06 00:20:12;;;;;;;8.52;4.97;;;-0.50;76.10;;;-1.78;62.50;96096.69;5057831;28;20226;-83
2021/03/06 00:22:39;;;;;;;10.18;5.78;;;-0.50;76.10;;;-1.79;62.61;96098.44;5072759;28;20199;-83
2021/03/06 00:25:10;;;;;;;9.60;5.85;;;-0.50;76.20;;;-1.80;62.99;96098.53;5057881;28;20202;-83
2021/03/06 00:27:38;;;;;;;11.05;6.45;;;-0.50;76.20;;;-1.81;62.40;96105.41;5075222;28;20232;-82
2021/03/06 00:30:14;;;;;;;9.13;5.85;;;-0.50;76.10;;;-1.85;62.53;96096.19;5074418;28;20723;-83
2021/03/06 00:32:41;;;;;;;9.40;6.57;;;-0.50;76.20;;;-1.85;62.51;96106.47;5052927;28;20874;-82
2021/03/06 00:35:10;;;;;;;9.88;6.00;;;-0.50;76.10;;;-1.88;62.50;96109.25;5058301;28;20198;-83
2021/03/06 00:37:38;;;;;;;8.90;6.25;;;-0.50;76.10;;;-1.96;62.66;96107.06;5073513;28;20233;-83
2021/03/06 00:40:08;;;;;;;11.20;6.47;;;-0.60;76.10;;;-1.88;62.43;96121.25;5072828;28;20217;-83
2021/03/06 00:42:36;;;;;;;10.77;6.22;;;-0.60;76.10;;;-1.89;62.44;96117.03;5058063;28;20187;-83
2021/03/06 00:45:07;;;;;;;12.32;7.18;;;-0.60;76.10;;;-1.89;62.52;96114.44;5058139;28;20290;-82
2021/03/06 00:47:35;;;;;;;10.32;6.78;;;-0.60;76.20;;;-1.90;62.77;96123.91;5074796;28;20265;-83
2021/03/06 00:50:38;;;;;;;11.52;6.70;;;-0.60;76.20;;;-1.91;62.55;96129.16;5058401;28;20291;-83
2021/03/06 00:53:11;;;;;;;10.75;6.97;;;-0.60;76.20;;;-1.94;62.62;96127.59;5085586;28;20207;-83
2021/03/06 00:55:39;;;;;;;11.25;7.18;;;-0.60;76.20;;;-1.95;62.92;96119.03;5057835;28;20871;-84
2021/03/06 00:58:06;;;;;;;13.32;7.75;;;-0.60;76.30;;;-1.92;62.75;96122.34;5064882;28;20275;-83
2021/03/06 01:00:34;;;;;;;11.23;8.13;;;-0.60;76.30;;;-1.92;63.02;96114.63;5057869;28;20742;-83
2021/03/06 01:03:06;;;;;;;13.70;8.82;;;-0.60;76.40;;;-1.92;62.71;96119.78;5058423;28;20184;-83
2021/03/06 01:05:33;;;;;;;13.70;9.07;;;-0.60;76.40;;;-1.95;63.04;96116.44;5054740;28;20483;-82
2021/03/06 01:08:00;;;;;;;16.15;9.65;;;-0.60;76.40;;;-1.95;63.03;96113.06;5060655;28;20648;-83
2021/03/06 01:10:35;;;;;;;15.73;9.95;;;-0.60;76.50;;;-1.92;63.09;96117.22;5055593;28;20203;-84
2021/03/06 01:13:03;;;;;;;17.42;9.65;;;-0.60;76.50;;;-1.95;62.94;96110.50;5057513;28;20244;-83
2021/03/06 01:15:31;;;;;;;14.95;9.38;;;-0.60;76.60;;;-1.88;63.48;96114.38;5074026;28;20314;-83
2021/03/06 01:17:58;;;;;;;17.83;10.23;;;-0.60;76.50;;;-1.88;63.00;96116.97;5074112;28;20199;-84
2021/03/06 01:20:26;;;;;;;16.95;9.95;;;-0.60;76.50;;;-1.89;63.39;96122.16;5061263;28;20219;-83
2021/03/06 01:22:53;;;;;;;15.85;9.30;;;-0.60;76.60;;;-1.98;63.11;96102.94;5088955;28;20202;-82
2021/03/06 01:25:20;;;;;;;17.63;10.02;;;-0.60;76.60;;;-1.90;62.99;96116.19;5060460;28;20249;-83
2021/03/06 01:27:47;;;;;;;17.25;9.57;;;-0.60;76.50;;;-1.94;63.17;96110.41;5076492;28;20198;-83
2021/03/06 01:30:15;;;;;;;14.50;9.63;;;-0.60;76.50;;;-1.94;63.33;96115.53;5073482;28;20195;-83
2021/03/06 01:32:41;;;;;;;15.07;8.80;;;-0.60;76.50;;;-1.95;63.07;96107.94;5057040;28;20215;-82
2021/03/06 01:35:10;;;;;;;17.40;9.55;;;-0.60;76.50;;;-2.01;62.99;96109.09;5057180;28;20650;-84
2021/03/06 01:37:38;;;;;;;15.80;10.05;;;-0.70;76.40;;;-1.98;63.30;96102.94;5057042;28;20230;-83
2021/03/06 01:40:29;;;;;;;16.60;9.13;;;-0.70;76.50;;;-2.02;63.36;96102.28;5057195;28;20207;-83
2021/03/06 01:42:59;;;;;;;13.48;9.20;;;-0.70;76.60;;;-2.06;63.73;96095.66;5041138;28;20202;-84
2021/03/06 01:45:26;;;;;;;14.15;9.13;;;-0.70;76.50;;;-2.04;63.48;96100.72;5057012;28;20199;-83
2021/03/06 01:47:53;;;;;;;15.25;9.35;;;-0.70;76.60;;;-2.06;63.86;96098.22;5040866;28;20207;-83
2021/03/06 01:50:28;;;;;;;14.48;9.20;;;-0.70;76.70;;;-2.11;64.12;96102.81;5056789;28;20600;-82
2021/03/06 01:52:55;;;;;;;15.18;9.43;;;-0.70;76.90;;;-2.10;64.28;96107.84;5056547;28;20198;-83
2021/03/06 01:55:24;;;;;;;15.15;9.32;;;-0.70;77.60;;;-2.11;64.42;96113.91;5039976;28;20245;-83
2021/03/06 01:57:53;;;;;;;17.20;10.02;;;-0.70;77.00;;;-2.14;64.61;96114.06;5057244;28;20285;-84
2021/03/06 02:00:30;;;;;;;15.90;9.57;;;-0.70;77.20;;;-2.14;64.55;96118.38;5043102;28;20296;-84
2021/03/06 02:02:59;;;;;;;18.05;10.52;;;-0.70;77.20;;;-2.17;64.72;96115.97;5056698;28;20230;-83
2021/03/06 02:05:27;;;;;;;18.33;10.30;;;-0.80;77.20;;;-2.18;64.74;96122.03;5056981;28;20227;-83
2021/03/06 02:07:55;;;;;;;15.32;9.55;;;-0.80;77.20;;;-2.22;64.70;96120.53;5059658;28;20209;-83
2021/03/06 02:10:29;;;;;;;18.38;9.88;;;-0.80;77.20;;;-2.27;64.78;96111.34;5057203;28;20214;-83
2021/03/06 02:13:35;;;;;;;20.02;10.88;;;-0.80;77.20;;;-2.27;65.19;96120.78;5052381;28;20217;-83
2021/03/06 02:16:38;;;;;;;16.15;10.48;;;-0.90;77.10;;;-2.32;65.03;96123.63;5076636;28;20221;-83
2021/03/06 02:19:42;;;;;;;16.45;9.80;;;-0.90;77.20;;;-2.35;64.86;96112.66;5071144;28;20219;-83
2021/03/06 02:22:48;;;;;;;17.27;10.02;;;-0.90;77.30;;;-2.40;65.42;96112.91;5073137;28;20268;-84
2021/03/06 02:26:01;;;;;;;17.73;11.15;;;-0.90;77.40;;;-2.43;65.57;96118.19;5056918;28;20272;-83
2021/03/06 02:28:57;;;;;;;17.88;11.27;;;-1.00;77.50;;;-2.46;65.62;96115.81;5067138;28;20565;-83
2021/03/06 02:31:28;;;;;;;18.77;11.15;;;-1.00;77.50;;;-2.52;65.96;96116.97;5055877;28;20306;-83
2021/03/06 02:34:06;;;;;;;22.35;12.43;;;-1.00;77.70;;;-2.51;66.18;96118.63;5039553;28;20199;-84
2021/03/06 02:36:39;;;;;;;22.42;11.38;;;-1.10;77.80;;;-2.52;66.32;96116.13;5056005;28;20219;-83
2021/03/06 02:39:10;;;;;;;19.98;11.75;;;-1.10;77.90;;;-2.54;66.35;96118.78;5055820;28;20247;-83
2021/03/06 02:41:37;;;;;;;19.40;11.32;;;-1.10;78.00;;;-2.58;66.28;96115.53;5055895;28;20344;-83
2021/03/06 02:44:06;;;;;;;20.30;11.63;;;-1.10;78.10;;;-2.58;65.91;96122.41;5056380;28;20282;-83
2021/03/06 02:46:34;;;;;;;20.50;12.35;;;-1.20;78.00;;;-2.57;66.06;96122.34;5068196;28;20564;-83
2021/03/06 02:49:01;;;;;;;23.48;12.68;;;-1.20;77.90;;;-2.62;65.66;96103.78;5055746;28;20199;-83
2021/03/06 02:51:43;;;;;;;20.73;11.43;;;-1.20;78.00;;;-2.58;65.98;96123.22;5073640;28;20219;-82
2021/03/06 02:54:11;;;;;;;23.02;12.32;;;-1.20;78.00;;;-2.60;65.98;96124.22;5072182;28;20187;-83
2021/03/06 02:56:39;;;;;;;19.52;11.63;;;-1.20;78.00;;;-2.60;66.05;96126.81;5055361;28;20222;-84
2021/03/06 02:59:38;;;;;;;19.00;11.48;;;-1.20;78.00;;;-2.64;65.87;96123.56;5055797;28;20238;-83
2021/03/06 03:02:46;;;;;;;20.98;12.13;;;-1.20;78.00;;;-2.71;65.94;96111.13;5071553;28;20727;-83
2021/03/06 03:05:32;;;;;;;20.23;12.30;;;-1.20;77.90;;;-2.67;66.00;96134.00;5064699;28;20715;-83
2021/03/06 03:08:13;;;;;;;17.45;11.60;;;-1.30;77.90;;;-2.72;65.99;96115.44;5075823;28;20652;-84
2021/03/06 03:10:48;;;;;;;17.08;11.25;;;-1.30;77.90;;;-2.72;66.02;96136.00;5075179;28;20223;-84
2021/03/06 03:13:25;;;;;;;20.48;11.95;;;-1.30;77.90;;;-2.77;65.90;96123.38;5076061;28;20236;-84
2021/03/06 03:16:09;;;;;;;22.73;11.77;;;-1.30;77.90;;;-2.77;66.04;96125.97;5092268;28;20218;-84
2021/03/06 03:18:46;;;;;;;21.13;12.15;;;-1.30;78.00;;;-2.74;65.95;96132.66;5075662;28;20214;-84
2021/03/06 03:21:19;;;;;;;21.35;12.73;;;-1.30;78.00;;;-2.80;66.51;96130.41;5092582;28;20232;-83
2021/03/06 03:23:56;;;;;;;19.30;11.80;;;-1.30;78.10;;;-2.78;66.36;96141.44;5059201;28;20187;-83
2021/03/06 03:26:25;;;;;;;20.75;12.40;;;-1.30;78.20;;;-2.78;66.68;96137.13;5058382;28;20307;-83
2021/03/06 03:28:54;;;;;;;21.88;12.27;;;-1.40;78.20;;;-2.79;66.35;96138.03;5059578;28;20217;-83
2021/03/06 03:31:26;;;;;;;19.17;11.98;;;-1.40;78.20;;;-2.81;66.23;96139.84;5075421;28;20433;-83
2021/03/06 03:33:55;;;;;;;21.08;11.88;;;-1.40;78.20;;;-2.81;66.24;96139.03;5092422;28;20187;-84
2021/03/06 03:36:25;;;;;;;19.67;11.98;;;-1.40;78.20;;;-2.81;66.42;96139.84;5075445;28;20221;-83
2021/03/06 03:38:52;;;;;;;19.55;12.27;;;-1.40;78.30;;;-2.80;66.26;96140.69;5075408;28;20234;-84
2021/03/06 03:41:20;;;;;;;20.17;12.25;;;-1.30;78.30;;;-2.82;66.54;96145.91;5075299;28;20222;-83
2021/03/06 03:43:47;;;;;;;21.50;11.88;;;-1.40;78.30;;;-2.82;66.37;96139.94;5088092;28;20195;-84
2021/03/06 03:46:14;;;;;;;19.40;11.82;;;-1.40;78.30;;;-2.83;66.74;96138.28;5054859;28;20583;-83
2021/03/06 03:48:44;;;;;;;18.63;11.90;;;-1.50;78.20;;;-2.87;66.47;96131.66;5055187;28;20734;-83
2021/03/06 03:51:12;;;;;;;20.17;11.77;;;-1.40;78.30;;;-2.82;66.60;96145.06;5056005;28;20223;-83
2021/03/06 03:53:40;;;;;;;18.60;11.77;;;-1.40;78.30;;;-2.82;66.45;96148.47;5075219;28;20256;-83
2021/03/06 03:56:23;;;;;;;21.52;11.55;;;-1.40;78.30;;;-2.78;66.23;96149.97;5077345;28;20229;-82
2021/03/06 03:58:50;;;;;;;21.67;12.38;;;-1.50;78.30;;;-2.79;66.02;96148.31;5066057;28;20218;-84
2021/03/06 04:01:16;;;;;;;18.55;10.82;;;-1.40;78.30;;;-2.76;66.00;96155.03;5057079;28;20225;-83
2021/03/06 04:03:44;;;;;;;18.27;11.10;;;-1.40;78.30;;;-2.75;66.13;96148.97;5055273;28;20649;-83
2021/03/06 04:06:11;;;;;;;17.88;10.80;;;-1.40;79.10;;;-2.74;66.26;96154.03;5038866;28;20234;-83
2021/03/06 04:08:38;;;;;;;19.08;11.15;;;-1.40;78.30;;;-2.74;66.23;96160.91;5074745;28;20661;-84
2021/03/06 04:11:05;;;;;;;19.75;11.65;;;-1.40;78.30;;;-2.72;66.02;96161.69;5075034;28;20215;-83
2021/03/06 04:13:32;;;;;;;18.77;10.48;;;-1.40;78.30;;;-2.71;66.09;96160.78;5074744;28;20194;-84
2021/03/06 04:15:59;;;;;;;21.10;11.80;;;-1.40;78.30;;;-2.69;66.00;96165.81;5062000;28;20276;-83
2021/03/06 04:18:25;;;;;;;19.80;11.38;;;-1.40;78.20;;;-2.70;66.22;96157.28;5062488;28;20190;-83
2021/03/06 04:20:53;;;;;;;22.27;11.45;;;-1.40;78.20;;;-2.70;65.73;96170.09;5062699;28;20230;-82
2021/03/06 04:23:20;;;;;;;21.27;11.35;;;-1.40;78.10;;;-2.72;65.61;96161.69;5059696;28;20203;-83
2021/03/06 04:25:47;;;;;;;16.45;10.23;;;-1.30;78.10;;;-2.71;65.63;96162.50;5091624;28;20230;-83
2021/03/06 04:28:13;;;;;;;15.77;10.82;;;-1.30;78.10;;;-2.74;65.47;96166.06;5085502;28;20567;-83
2021/03/06 04:30:40;;;;;;;19.77;11.55;;;-1.40;78.00;;;-2.74;65.65;96166.88;5068277;28;20234;-83
2021/03/06 04:33:07;;;;;;;19.13;11.68;;;-1.40;77.90;;;-2.74;65.63;96173.75;5062995;28;20657;-83
2021/03/06 04:35:34;;;;;;;19.45;11.50;;;-1.40;77.90;;;-2.80;65.69;96168.94;5064292;28;20236;-83
2021/03/06 04:38:00;;;;;;;18.20;11.25;;;-1.40;77.90;;;-2.81;65.74;96180.09;5068315;28;20198;-83
2021/03/06 04:40:27;;;;;;;19.13;11.60;;;-1.40;78.00;;;-2.84;65.61;96170.00;5070327;28;20230;-83
2021/03/06 04:42:54;;;;;;;18.48;11.77;;;-1.40;78.00;;;-2.83;65.77;96174.22;5074605;28;20187;-83
2021/03/06 04:45:21;;;;;;;18.95;12.10;;;-1.40;77.90;;;-2.86;65.58;96172.63;5056471;28;20229;-83
2021/03/06 04:47:48;;;;;;;20.40;12.35;;;-1.40;77.90;;;-2.90;65.60;96173.72;5068159;28;20187;-82
2021/03/06 04:50:15;;;;;;;20.92;11.40;;;-1.40;78.00;;;-2.89;65.71;96188.22;5083045;28;20214;-83
2021/03/06 04:52:42;;;;;;;21.98;11.90;;;-1.50;78.00;;;-2.92;66.03;96185.78;5064958;28;20289;-83
2021/03/06 04:55:12;;;;;;;21.08;12.18;;;-1.50;78.00;;;-2.97;65.99;96182.63;5057790;28;20299;-84
2021/03/06 04:57:38;;;;;;;20.83;11.30;;;-1.50;78.10;;;-2.94;65.86;96195.28;5059672;28;20280;-83
2021/03/06 05:00:07;;;;;;;18.02;11.20;;;-1.50;78.10;;;-2.96;65.86;96190.25;5060303;28;20239;-84
2021/03/06 05:02:35;;;;;;;20.00;11.52;;;-1.50;78.00;;;-2.98;65.84;96192.06;5056366;28;20202;-83
2021/03/06 05:05:08;;;;;;;22.55;11.15;;;-1.60;78.00;;;-3.04;65.34;96179.53;5073645;28;20271;-84
2021/03/06 05:07:36;;;;;;;18.15;10.63;;;-1.60;78.00;;;-3.03;65.75;96181.19;5040287;28;20282;-84
2021/03/06 05:10:04;;;;;;;16.17;10.10;;;-1.60;78.00;;;-3.04;65.83;96183.84;5040895;28;20198;-84
2021/03/06 05:12:31;;;;;;;19.80;11.10;;;-1.60;77.90;;;-3.06;65.71;96189.88;5055915;28;20357;-84
2021/03/06 05:14:58;;;;;;;17.85;11.15;;;-1.60;78.00;;;-3.07;66.04;96195.09;5055520;28;20207;-83
2021/03/06 05:17:25;;;;;;;26.83;13.07;;;-1.60;78.00;;;-3.14;65.67;96189.41;5039610;28;20281;-84
2021/03/06 05:19:52;;;;;;;31.02;12.93;;;-1.60;78.80;;;-3.14;65.80;96186.84;5055989;28;20231;-82
2021/03/06 05:22:19;;;;;;;21.65;11.05;;;-1.60;78.00;;;-3.12;65.79;96182.47;5055563;28;20306;-82
2021/03/06 05:24:48;;;;;;;19.48;11.18;;;-1.70;78.00;;;-3.12;65.82;96189.38;5055496;28;20233;-83
2021/03/06 05:27:30;;;;;;;23.92;11.13;;;-1.70;78.00;;;-3.13;65.83;96185.94;5043539;28;20301;-82
2021/03/06 05:29:57;;;;;;;29.38;13.27;;;-1.70;78.10;;;-3.14;65.84;96179.16;5040869;28;20227;-83
2021/03/06 05:32:24;;;;;;;22.40;11.50;;;-1.70;78.10;;;-3.10;65.74;96174.69;5056707;28;20223;-80
2021/03/06 05:34:50;;;;;;;22.55;11.70;;;-1.70;78.10;;;-3.10;65.42;96183.25;5073106;28;20567;-81
2021/03/06 05:37:17;;;;;;;22.35;12.00;;;-1.70;78.10;;;-3.10;65.82;96192.66;5039979;28;20242;-80
2021/03/06 05:39:45;;;;;;;21.38;12.35;;;-1.70;78.20;;;-3.09;65.72;96197.75;5054901;28;20617;-80
2021/03/06 05:42:13;;;;;;;18.17;10.85;;;-1.70;78.20;;;-3.09;65.62;96194.31;5073329;28;20219;-83
2021/03/06 05:44:42;;;;;;;19.15;10.63;;;-1.70;78.20;;;-3.04;65.65;96189.78;5056955;28;20195;-83
2021/03/06 05:47:09;;;;;;;16.98;10.35;;;-1.70;78.20;;;-3.06;65.92;96192.44;5041342;28;20294;-83
2021/03/06 05:49:38;;;;;;;18.50;10.65;;;-1.70;78.40;;;-2.98;65.89;96192.06;5073463;28;20218;-83
2021/03/06 05:52:06;;;;;;;18.10;10.52;;;-1.70;78.30;;;-2.93;65.76;96202.09;5057107;28;20567;-83
2021/03/06 05:54:36;;;;;;;19.27;10.77;;;-1.60;78.40;;;-2.88;65.83;96196.72;5056958;28;20665;-83
2021/03/06 05:57:05;;;;;;;19.35;11.05;;;-1.60;78.30;;;-2.84;65.61;96195.69;5057197;28;20211;-82
2021/03/06 05:59:33;;;;;;;18.17;11.40;;;-1.60;78.30;;;-2.82;65.55;96188.72;5056939;28;20334;-83
2021/03/06 06:02:00;;;;;;;18.17;11.18;;;-1.50;78.50;;;-2.75;65.94;96201.19;5057072;28;20219;-82
2021/03/06 06:04:28;;;;;;;19.98;10.80;;;-1.40;78.50;;;-2.69;65.50;96200.03;5073256;28;20200;-83
2021/03/06 06:06:56;;;;;;;17.73;10.43;;;-1.50;78.40;;;-2.67;65.70;96194.81;5040321;28;20246;-84
2021/03/06 06:09:23;;;;;;;18.42;10.98;;;-1.40;78.40;;;-2.60;65.68;96197.00;5071790;28;20207;-83
2021/03/06 06:11:50;;;;;;;18.02;11.27;;;-1.40;78.50;;;-2.57;65.52;96194.25;5076562;28;20236;-83
2021/03/06 06:14:32;;;;;;;15.50;9.88;;;-1.40;78.50;;;-2.49;65.60;96193.88;5093969;28;20218;-84
2021/03/06 06:17:04;;;;;;;15.02;10.38;;;-1.30;78.50;;;-2.44;65.84;96196.19;5076484;28;20232;-82
2021/03/06 06:19:36;;;;;;;16.92;10.63;;;-1.30;78.50;;;-2.39;65.57;96198.50;5076642;28;20223;-84
2021/03/06 06:22:20;;;;;;;16.23;10.32;;;-1.20;78.60;;;-2.35;65.54;96200.03;5076751;28;20699;-83
2021/03/06 06:24:50;;;;;;;16.08;10.73;;;-1.20;79.30;;;-2.30;65.33;96192.91;5092875;28;20191;-84
2021/03/06 06:27:33;;;;;;;17.58;10.40;;;-1.10;78.50;;;-2.20;65.57;96209.47;5076970;28;20299;-83
2021/03/06 06:30:14;;;;;;;16.52;10.52;;;-1.10;78.50;;;-2.13;65.22;96208.25;5059563;28;20668;-83
2021/03/06 06:32:45;;;;;;;16.02;9.90;;;-1.00;78.60;;;-2.09;65.45;96211.50;5093172;28;20214;-83
2021/03/06 06:35:15;;;;;;;18.60;10.23;;;-1.00;78.60;;;-2.07;65.46;96208.84;5059268;28;20199;-83
2021/03/06 06:38:04;;;;;;;20.98;10.82;;;-0.80;78.60;;;-1.99;65.02;96212.69;5074619;28;20248;-82
2021/03/06 06:40:38;;;;;;;18.33;10.40;;;-0.90;78.50;;;-1.91;65.01;96224.28;5056036;28;20219;-83
2021/03/06 06:43:24;;;;;;;14.95;9.88;;;-0.80;78.50;;;-1.86;64.90;96230.81;5056451;28;20262;-83
2021/03/06 06:45:51;;;;;;;16.08;9.85;;;-0.70;78.50;;;-1.80;64.70;96229.69;5072945;28;20234;-84
2021/03/06 06:48:19;;;;;;;17.23;10.13;;;-0.70;78.50;;;-1.77;64.58;96245.78;5056266;28;20195;-84
2021/03/06 06:50:46;;;;;;;14.15;9.20;;;-0.70;78.40;;;-1.69;64.59;96239.38;5039872;28;20211;-84
2021/03/06 06:53:26;;;;;;;15.65;9.70;;;-0.60;78.40;;;-1.64;64.52;96234.81;5056246;28;20273;-84
2021/03/06 06:55:53;;;;;;;13.98;8.95;;;-0.50;78.40;;;-1.56;64.49;96242.09;5055777;28;20234;-84
2021/03/06 06:58:40;;;;;;;14.43;9.38;;;-0.50;78.40;;;-1.52;64.64;96248.75;5044805;28;20258;-84
2021/03/06 07:01:33;;;;;;;14.13;9.35;;;-0.40;78.40;;;-1.43;64.39;96253.38;5056020;28;20218;-84
2021/03/06 07:04:08;;;;;;;16.08;9.13;;;-0.40;78.20;;;-1.40;64.02;96253.22;5039670;28;20191;-84
2021/03/06 07:06:37;;;;;;;12.52;8.73;;;-0.30;78.30;;;-1.32;64.35;96253.63;5039195;28;20219;-84
2021/03/06 07:09:12;;;;;;;13.10;8.68;;;-0.20;78.40;;;-1.26;64.31;96259.34;5051660;28;20580;-83
2021/03/06 07:11:42;;;;;;;13.38;8.98;;;-0.20;78.30;;;-1.20;64.05;96264.16;5075284;28;20726;-83
2021/03/06 07:14:09;;;;;;;15.80;8.80;;;-0.20;78.30;;;-1.17;63.98;96254.53;5075896;28;20235;-85
2021/03/06 07:17:01;;;;;;;13.18;8.88;;;-0.10;78.30;;;-1.05;64.01;96257.31;5076217;28;20210;-84
2021/03/06 07:19:31;;;;;;;14.13;8.43;;;0.00;78.30;;;-1.06;63.89;96259.06;5058468;28;20298;-84
2021/03/06 07:21:59;;;;;;;13.27;9.20;;;0.00;78.30;;;-0.97;63.93;96260.28;5058161;28;20210;-84
2021/03/06 07:24:28;;;;;;;13.02;8.48;;;0.00;78.20;;;-0.89;63.89;96257.25;5075708;28;20230;-84
2021/03/06 07:26:55;;;;;;;11.82;8.40;;;0.10;78.20;;;-0.84;63.90;96258.66;5058814;28;20211;-85
2021/03/06 07:29:27;;;;;;;15.98;9.93;;;0.10;78.20;;;-0.78;63.85;96262.66;5057934;28;20209;-85
2021/03/06 07:31:56;;;;;;;12.98;9.32;;;0.20;78.10;;;-0.76;63.82;96260.78;5075377;28;20321;-85
2021/03/06 07:34:27;;;;;;;13.45;9.00;;;0.30;78.30;;;-0.67;63.89;96265.44;5059082;28;20201;-84
2021/03/06 07:37:04;;;;;;;15.30;9.63;;;0.30;78.20;;;-0.60;63.77;96270.22;5075625;28;20235;-84
2021/03/06 07:39:39;;;;;;;13.32;9.35;;;0.40;78.30;;;-0.51;63.76;96274.84;5055415;28;20219;-85
2021/03/06 07:42:28;;;;;;;15.20;9.27;;;0.50;78.40;;;-0.43;63.92;96280.38;5039032;28;20214;-84
2021/03/06 07:44:56;;;;;;;14.88;9.05;;;0.50;78.30;;;-0.42;63.78;96269.13;5055571;28;20266;-85
2021/03/06 07:47:32;;;;;;;17.38;9.65;;;0.60;78.40;;;-0.27;63.89;96284.63;5038788;28;20269;-85
2021/03/06 07:50:03;;;;;;;13.82;9.30;;;0.60;78.30;;;-0.22;63.69;96280.88;5040972;28;20323;-85
2021/03/06 07:52:34;;;;;;;11.98;9.10;;;0.70;78.30;;;-0.16;63.59;96282.22;5042852;28;20226;-85
2021/03/06 07:55:04;;;;;;;12.93;8.80;;;0.70;78.30;;;-0.11;63.77;96287.13;5059808;28;20403;-85
2021/03/06 07:57:31;;;;;;;14.45;9.68;;;0.80;78.20;;;0.00;63.97;96284.75;5059381;28;20250;-85
2021/03/06 07:59:57;;;;;;;16.23;10.05;;;0.80;78.30;;;0.06;63.77;96288.69;5042756;28;20241;-86
2021/03/06 08:02:37;;;;;;;13.30;9.02;;;0.90;78.40;;;0.12;63.80;96285.72;5059424;28;20215;-84
2021/03/06 08:05:45;;;;;;;14.90;9.02;;;1.00;78.40;;;0.26;63.54;96300.41;5059719;28;20534;-84
2021/03/06 08:08:37;;;;;;;15.95;9.65;;;1.00;78.50;;;0.35;63.54;96301.56;5065147;28;20585;-85
2021/03/06 08:11:18;;;;;;;16.75;9.52;;;1.10;78.40;;;0.41;63.87;96299.44;5095841;28;20222;-86
2021/03/06 08:13:59;;;;;;;14.50;9.68;;;1.20;78.40;;;0.44;63.91;96285.50;5079444;28;20199;-84
2021/03/06 08:16:30;;;;;;;16.13;10.30;;;1.30;78.50;;;0.58;63.95;96295.81;5079369;28;20325;-85
2021/03/06 08:19:13;;;;;;;13.38;9.23;;;1.40;78.50;;;0.68;63.72;96300.41;5095988;28;20285;-85
2021/03/06 08:21:50;;;;;;;12.40;9.48;;;1.40;78.60;;;0.69;63.69;96291.75;5096345;28;20248;-85
2021/03/06 08:24:19;;;;;;;14.23;10.00;;;1.50;78.60;;;0.81;63.59;96301.28;5079846;28;20197;-84
2021/03/06 08:27:02;;;;;;;15.50;10.43;;;1.60;78.70;;;0.90;63.73;96298.09;5078552;28;20237;-85
2021/03/06 08:29:52;;;;;;;17.55;10.73;;;1.60;78.70;;;1.00;63.54;96300.97;5081108;28;20209;-85
2021/03/06 08:32:27;;;;;;;16.42;10.55;;;1.70;78.70;;;1.05;63.31;96303.22;5079162;28;20255;-86
2021/03/06 08:35:17;;;;;;;12.52;9.43;;;1.80;79.40;;;1.16;62.95;96300.81;5079399;28;20243;-85
2021/03/06 08:37:45;;;;;;;13.60;8.73;;;1.90;78.50;;;1.22;62.98;96292.66;5062532;28;20187;-84
2021/03/06 08:40:16;;;;;;;11.32;8.45;;;2.00;78.60;;;1.33;62.87;96301.44;5078634;28;20260;-85
2021/03/06 08:42:45;;;;;;;11.55;8.15;;;2.00;78.50;;;1.36;62.82;96296.91;5078542;28;20282;-85
2021/03/06 08:45:13;;;;;;;10.57;8.38;;;2.10;78.50;;;1.49;62.78;96302.13;5062094;28;20233;-84
2021/03/06 08:47:44;;;;;;;11.55;7.97;;;2.10;78.40;;;1.49;62.38;96296.09;5078644;28;20582;-84
2021/03/06 08:50:18;;;;;;;12.18;8.32;;;2.20;78.20;;;1.59;62.44;96297.97;5078274;28;20191;-83
2021/03/06 08:52:59;;;;;;;12.55;8.50;;;2.30;78.20;;;1.67;62.39;96301.81;5078821;28;20580;-85
2021/03/06 08:55:32;;;;;;;12.63;8.63;;;2.40;78.20;;;1.74;62.19;96301.28;5061428;28;20203;-85
2021/03/06 08:58:04;;;;;;;11.80;8.32;;;2.40;78.00;;;1.79;62.03;96298.41;5078722;28;20191;-84
2021/03/06 09:00:34;;;;;;;11.50;7.60;;;2.50;77.90;;;1.87;62.18;96296.13;5077765;28;20223;-85
2021/03/06 09:03:19;;;;;;;10.35;8.07;;;2.60;78.00;;;1.92;61.87;96298.41;5078119;28;20195;-84
2021/03/06 09:05:50;;;;;;;11.25;7.45;;;2.60;77.80;;;1.97;61.52;96298.94;5061712;28;20218;-85
2021/03/06 09:08:22;;;;;;;9.55;7.15;;;2.70;77.80;;;2.04;61.59;96297.59;5078169;28;20203;-84
2021/03/06 09:10:51;;;;;;;11.55;7.20;;;2.70;77.60;;;2.15;61.89;96302.03;5078119;28;20211;-85
2021/03/06 09:13:21;;;;;;;12.27;7.60;;;2.70;77.70;;;2.22;61.34;96299.84;5078408;28;20195;-85
2021/03/06 09:15:48;;;;;;;9.07;7.53;;;2.80;77.80;;;2.27;61.64;96294.34;5077887;28;20268;-85
2021/03/06 09:18:25;;;;;;;9.20;7.38;;;2.90;77.70;;;2.34;61.26;96298.16;5077672;28;20256;-85
2021/03/06 09:21:09;;;;;;;10.00;7.45;;;2.90;77.40;;;2.39;61.02;96296.06;5061160;28;20314;-84
2021/03/06 09:23:47;;;;;;;10.48;7.30;;;3.00;77.30;;;2.44;60.92;96299.19;5078149;28;20198;-84
2021/03/06 09:26:21;;;;;;;6.82;5.60;;;3.10;76.70;;;2.49;60.60;96291.94;5077489;28;20271;-84
2021/03/06 09:28:54;;;;;;;9.30;6.60;;;3.10;77.00;;;2.53;60.30;96285.59;5061296;28;20676;-84
2021/03/06 09:31:31;;;;;;;8.27;6.22;;;3.20;76.50;;;2.61;60.48;96292.00;5077621;28;20317;-84
2021/03/06 09:33:59;;;;;;;6.75;5.13;;;3.20;76.30;;;2.69;60.21;96292.28;5077981;28;20644;-84
2021/03/06 09:36:31;;;;;;;5.95;4.28;;;3.30;76.60;;;2.78;60.56;96286.44;5060808;28;20206;-84
2021/03/06 09:39:02;;;;;;;4.90;3.95;;;3.30;76.80;;;2.94;60.66;96291.38;5060750;28;20203;-83
2021/03/06 09:41:33;;;;;;;7.47;5.85;;;3.40;76.70;;;3.08;60.41;96300.72;5061198;28;20214;-83
2021/03/06 09:44:03;;;;;;;19.85;9.07;;;3.50;76.60;;;3.19;59.96;96298.19;5061030;28;20561;-84
2021/03/06 09:46:32;;;;;;;15.45;8.23;;;3.60;76.50;;;3.27;60.17;96301.97;5060125;28;20628;-84
2021/03/06 09:49:03;;;;;;;9.70;7.10;;;3.60;76.50;;;3.31;59.76;96293.88;5077144;28;20202;-84
2021/03/06 09:51:57;;;;;;;9.40;6.00;;;3.70;76.50;;;3.40;59.70;96294.97;5060648;28;20280;-84
2021/03/06 09:54:26;;;;;;;7.68;5.80;;;3.80;75.70;;;3.50;59.52;96298.53;5060979;28;20210;-84
2021/03/06 09:56:59;;;;;;;8.60;5.95;;;3.90;76.50;;;3.56;58.85;96296.44;5077126;28;20317;-85
2021/03/06 09:59:28;;;;;;;6.80;5.55;;;4.00;76.10;;;3.57;58.98;96295.50;5077271;28;20268;-83
2021/03/06 10:02:07;;;;;;;8.85;5.90;;;4.10;75.80;;;3.61;59.03;96296.91;5077061;28;20268;-82
2021/03/06 10:04:35;;;;;;;27.77;16.38;;;4.10;74.90;;;3.66;59.25;96297.38;5076378;28;20636;-81
2021/03/06 10:07:10;;;;;;;13.05;9.00;;;4.20;75.70;;;3.73;59.50;96296.00;5095701;28;20206;-85
2021/03/06 10:09:37;;;;;;;8.50;5.68;;;4.20;75.30;;;3.81;60.14;96298.84;5065149;28;20281;-84
2021/03/06 10:12:10;;;;;;;5.50;4.40;;;4.30;75.80;;;3.86;59.46;96298.50;5039628;28;20792;-82
2021/03/06 10:14:38;;;;;;;6.80;4.22;;;4.30;75.20;;;3.87;59.36;96281.16;5075147;28;20191;-84
2021/03/06 10:17:07;;;;;;;4.22;2.92;;;4.40;75.70;;;4.01;59.56;96280.94;5077059;28;20221;-85
2021/03/06 10:19:54;;;;;;;4.15;3.25;;;4.50;75.60;;;4.10;59.42;96284.59;5058233;28;20265;-85
2021/03/06 10:22:22;;;;;;;6.85;6.20;;;4.60;74.60;;;4.21;59.32;96286.38;5056748;28;20223;-85
2021/03/06 10:25:04;;;;;;;6.35;4.20;;;4.60;75.50;;;4.28;58.83;96295.34;5073128;28;20193;-85
2021/03/06 10:27:46;;;;;;;5.40;3.90;;;4.70;74.70;;;4.27;58.81;96291.94;5056972;28;20215;-86
2021/03/06 10:30:19;;;;;;;4.53;3.60;;;4.80;74.30;;;4.22;58.74;96288.03;5056751;28;20214;-85
2021/03/06 10:32:52;;;;;;;6.20;4.55;;;4.90;74.60;;;4.24;58.59;96293.94;5074478;28;20668;-85
2021/03/06 10:35:38;;;;;;;7.43;4.97;;;4.90;74.70;;;4.14;58.09;96288.63;5056657;28;20275;-83
2021/03/06 10:38:15;;;;;;;7.10;5.50;;;4.90;73.70;;;4.03;58.12;96288.59;5076980;28;20237;-85